Polar Bear — ZMA2072 — position and weather

sailwx.info

Track history (hours):
 
Tides and Currents Weather Stations Pressure Air Temp Water Temp Dewpoint Dewpoint Depression Visibility Wind Speed Wind Dir Waves Ship Positions

Polar Bear

Last reported at 2015-Jun-30 02:16 UTC. Time now 2015-Jul-03 23:45 UTC.
Position N 49°10' W 123°56'.

Length 28 m; draft 2.3 m.

Type: Pleasure craft. MMSI: 512172000.

Date/timePositionNaut miles runAvg speedWind from/ knotsBaromVisibWave heightAir tempDewpointWater temp
2015-Jun-30 02:16N 49°10' W 123°56'4 5.1
2015-Jun-30 01:33N 49°12' W 123°51'9 9.5
2015-Jun-30 00:34N 49°15' W 123°38'10 9.9
2015-Jun-29 23:33N 49°18' W 123°23'6 5.7
2015-Jun-29 22:32N 49°20' W 123°15'0 0.0
2015-Jun-29 21:32N 49°20' W 123°15'0 0.0
2015-Jun-29 20:32N 49°20' W 123°15'0 0.0
2015-Jun-29 19:32N 49°20' W 123°15'0 0.0
2015-Jun-29 18:32N 49°20' W 123°15'0 0.0
2015-Jun-29 17:32N 49°20' W 123°15'0 0.0
2015-Jun-29 16:32N 49°20' W 123°15'0 0.0
2015-Jun-29 15:32N 49°20' W 123°15'0 0.0
2015-Jun-29 14:32N 49°20' W 123°15'0 0.0
2015-Jun-29 13:32N 49°20' W 123°15'0 0.0
2015-Jun-29 12:29N 49°20' W 123°15'0 0.0
2015-Jun-29 11:29N 49°20' W 123°15'0 0.0
2015-Jun-29 10:32N 49°20' W 123°15'0 0.0
2015-Jun-29 09:32N 49°20' W 123°15'0 0.0
2015-Jun-29 08:32N 49°20' W 123°15'0 0.0
2015-Jun-29 07:32N 49°20' W 123°15'0 0.0
2015-Jun-29 06:32N 49°20' W 123°15'0 0.0
2015-Jun-29 05:32N 49°20' W 123°15'0 0.0
2015-Jun-29 04:32N 49°20' W 123°15'5 5.1
2015-Jun-29 03:33N 49°20' W 123°22'9 9.3
2015-Jun-29 02:33N 49°23' W 123°36'2 0.1
2015-Jun-27 19:21N 49°23' W 123°39'8 9.9
2015-Jun-27 18:33N 49°21' W 123°28'8 8.3
2015-Jun-27 17:33N 49°20' W 123°15'0 0.2
2015-Jun-27 16:33N 49°20' W 123°15'9 9.1
2015-Jun-27 15:33N 49°17' W 123°28'10 9.9
2015-Jun-27 14:33N 49°14' W 123°43'9 9.5
2015-Jun-27 13:33N 49°10' W 123°56'0 0.1
2015-Jun-27 12:28N 49°10' W 123°56'0 0.0
2015-Jun-27 11:28N 49°10' W 123°56'0 0.0
2015-Jun-27 10:16N 49°10' W 123°56'0 0.0
2015-Jun-27 09:28N 49°10' W 123°56'0 0.0
2015-Jun-27 08:22N 49°10' W 123°56'0 0.0
2015-Jun-27 07:25N 49°10' W 123°56'0 0.0
2015-Jun-27 06:04N 49°10' W 123°56'0 0.0
2015-Jun-27 05:16N 49°10' W 123°56'0 0.0
2015-Jun-27 04:28N 49°10' W 123°56'0 0.0
2015-Jun-27 03:28N 49°10' W 123°56'0 0.0
2015-Jun-27 02:28N 49°10' W 123°56'0 0.0
2015-Jun-27 01:31N 49°10' W 123°56'0 0.0
2015-Jun-27 00:31N 49°10' W 123°56'0 0.0
2015-Jun-26 23:28N 49°10' W 123°56'0 0.0
2015-Jun-26 22:19N 49°10' W 123°56'  
Track history (hours):
 
Tides and Currents Weather Stations Pressure Air Temp Water Temp Dewpoint Dewpoint Depression Visibility Wind Speed Wind Dir Waves Ship Positions

Polar Bear

Last reported at 2015-Jun-30 02:16 UTC. Time now 2015-Jul-03 23:45 UTC.
Position N 49°10' W 123°56'.

Length 28 m; draft 2.3 m.

Type: Pleasure craft. MMSI: 512172000.

Date/timePositionNaut miles runAvg speedWind from/ knotsBaromVisibWave heightAir tempDewpointWater temp
2015-Jun-30 02:16N 49°10' W 123°56'4 5.1
2015-Jun-30 01:33N 49°12' W 123°51'9 9.5
2015-Jun-30 00:34N 49°15' W 123°38'10 9.9
2015-Jun-29 23:33N 49°18' W 123°23'6 5.7
2015-Jun-29 22:32N 49°20' W 123°15'0 0.0
2015-Jun-29 21:32N 49°20' W 123°15'0 0.0
2015-Jun-29 20:32N 49°20' W 123°15'0 0.0
2015-Jun-29 19:32N 49°20' W 123°15'0 0.0
2015-Jun-29 18:32N 49°20' W 123°15'0 0.0
2015-Jun-29 17:32N 49°20' W 123°15'0 0.0
2015-Jun-29 16:32N 49°20' W 123°15'0 0.0
2015-Jun-29 15:32N 49°20' W 123°15'0 0.0
2015-Jun-29 14:32N 49°20' W 123°15'0 0.0
2015-Jun-29 13:32N 49°20' W 123°15'0 0.0
2015-Jun-29 12:29N 49°20' W 123°15'0 0.0
2015-Jun-29 11:29N 49°20' W 123°15'0 0.0
2015-Jun-29 10:32N 49°20' W 123°15'0 0.0
2015-Jun-29 09:32N 49°20' W 123°15'0 0.0
2015-Jun-29 08:32N 49°20' W 123°15'0 0.0
2015-Jun-29 07:32N 49°20' W 123°15'0 0.0
2015-Jun-29 06:32N 49°20' W 123°15'0 0.0
2015-Jun-29 05:32N 49°20' W 123°15'0 0.0
2015-Jun-29 04:32N 49°20' W 123°15'5 5.1
2015-Jun-29 03:33N 49°20' W 123°22'9 9.3
2015-Jun-29 02:33N 49°23' W 123°36'2 0.1
2015-Jun-27 19:21N 49°23' W 123°39'8 9.9
2015-Jun-27 18:33N 49°21' W 123°28'8 8.3
2015-Jun-27 17:33N 49°20' W 123°15'0 0.2
2015-Jun-27 16:33N 49°20' W 123°15'9 9.1
2015-Jun-27 15:33N 49°17' W 123°28'10 9.9
2015-Jun-27 14:33N 49°14' W 123°43'9 9.5
2015-Jun-27 13:33N 49°10' W 123°56'0 0.1
2015-Jun-27 12:28N 49°10' W 123°56'0 0.0
2015-Jun-27 11:28N 49°10' W 123°56'0 0.0
2015-Jun-27 10:16N 49°10' W 123°56'0 0.0
2015-Jun-27 09:28N 49°10' W 123°56'0 0.0
2015-Jun-27 08:22N 49°10' W 123°56'0 0.0
2015-Jun-27 07:25N 49°10' W 123°56'0 0.0
2015-Jun-27 06:04N 49°10' W 123°56'0 0.0
2015-Jun-27 05:16N 49°10' W 123°56'0 0.0
2015-Jun-27 04:28N 49°10' W 123°56'0 0.0
2015-Jun-27 03:28N 49°10' W 123°56'0 0.0
2015-Jun-27 02:28N 49°10' W 123°56'0 0.0
2015-Jun-27 01:31N 49°10' W 123°56'0 0.0
2015-Jun-27 00:31N 49°10' W 123°56'0 0.0
2015-Jun-26 23:28N 49°10' W 123°56'0 0.0
2015-Jun-26 22:19N 49°10' W 123°56'  

Dump ship's entire track history